createdAt,value
2018-12-31T10:14:01.852Z,2420
2018-12-31T10:15:11.778Z,2532
2018-12-31T10:16:21.710Z,2728
2018-12-31T10:17:31.394Z,3432
2018-12-31T10:18:41.083Z,2924
2018-12-31T10:19:50.514Z,2592
2018-12-31T10:20:59.696Z,2580
2018-12-31T10:22:09.385Z,2584
2018-12-31T10:23:19.143Z,2716
2018-12-31T10:24:28.319Z,2700
2018-12-31T10:25:38.089Z,2648
2018-12-31T10:26:48.022Z,2912
2018-12-31T10:27:57.451Z,2496
2018-12-31T10:29:06.632Z,2680
2018-12-31T10:30:16.320Z,2680
2018-12-31T10:31:26.340Z,2928
2018-12-31T10:32:35.769Z,2640
2018-12-31T10:33:45.703Z,2952
2018-12-31T10:34:55.380Z,3088
2018-12-31T10:36:05.310Z,3516
2018-12-31T10:37:14.988Z,4200
2018-12-31T10:38:24.990Z,4020
2018-12-31T10:39:34.734Z,3800
2018-12-31T10:40:44.435Z,3876
2018-12-31T10:41:54.125Z,3940
2018-12-31T10:43:03.828Z,4080
2018-12-31T10:44:13.628Z,3488
2018-12-31T10:45:23.560Z,2872
2018-12-31T10:46:33.042Z,2664
2018-12-31T10:47:42.716Z,2644
2018-12-31T10:48:53.213Z,2616
2018-12-31T10:50:02.643Z,2672
2018-12-31T10:51:11.829Z,2800
2018-12-31T10:52:21.784Z,2828
2018-12-31T10:53:31.479Z,3108
2018-12-31T10:54:41.167Z,3068
2018-12-31T10:55:50.847Z,3144
2018-12-31T10:57:00.783Z,3284
2018-12-31T10:58:10.452Z,3180
2018-12-31T10:59:20.414Z,3292
2018-12-31T11:00:30.592Z,3236
2018-12-31T11:01:40.591Z,3076
2018-12-31T11:02:51.024Z,2652
2018-12-31T11:04:01.610Z,2664
2018-12-31T11:05:11.728Z,2516
2018-12-31T11:06:21.746Z,2296
2018-12-31T11:07:31.537Z,2368
2018-12-31T11:08:41.750Z,2284
2018-12-31T11:09:51.806Z,1984
2018-12-31T11:11:01.962Z,1992
2018-12-31T11:12:12.714Z,1868
2018-12-31T11:13:23.445Z,1704
2018-12-31T11:14:34.406Z,1548
2018-12-31T11:15:44.525Z,1428
2018-12-31T11:16:54.347Z,1520
2018-12-31T11:18:04.799Z,1596
2018-12-31T11:19:13.980Z,1624
2018-12-31T11:20:23.418Z,1840
2018-12-31T11:21:32.857Z,2020
2018-12-31T11:22:42.372Z,2360
2018-12-31T11:23:51.808Z,2556
2018-12-31T11:25:01.500Z,2512
2018-12-31T11:26:11.198Z,2516
2018-12-31T11:27:20.940Z,2776
2018-12-31T11:28:30.393Z,2628
2018-12-31T11:29:40.379Z,2668
2018-12-31T11:30:51.656Z,2924
2018-12-31T11:32:01.043Z,3276
2018-12-31T11:33:10.759Z,3280
2018-12-31T11:34:20.438Z,3468
2018-12-31T11:35:30.364Z,3712
2018-12-31T11:36:39.797Z,3048
2018-12-31T11:37:49.235Z,2824
2018-12-31T11:38:58.674Z,3156
2018-12-31T11:40:08.415Z,3136
2018-12-31T11:41:18.111Z,2728
2018-12-31T11:42:27.794Z,2512
2018-12-31T11:43:37.240Z,2424
2018-12-31T11:44:46.923Z,2308
2018-12-31T11:45:56.357Z,2380
2018-12-31T11:47:05.791Z,2712
2018-12-31T11:48:15.723Z,2460
2018-12-31T11:49:25.398Z,2476
2018-12-31T11:50:35.084Z,2720
2018-12-31T11:51:44.764Z,2796
2018-12-31T11:52:54.995Z,3120
2018-12-31T11:54:04.229Z,3120
2018-12-31T11:55:13.732Z,2924
2018-12-31T11:56:23.419Z,3400
2018-12-31T11:57:33.158Z,3440
2018-12-31T11:58:42.837Z,3356
2018-12-31T11:59:54.019Z,3344
2018-12-31T12:01:03.876Z,3424
2018-12-31T12:02:12.878Z,3760
2018-12-31T12:03:22.654Z,4116
2018-12-31T12:04:31.366Z,4416
2018-12-31T12:05:40.916Z,4496
2018-12-31T12:06:50.516Z,3976
2018-12-31T12:08:00.036Z,4728
2018-12-31T12:09:09.748Z,4108
2018-12-31T12:10:19.491Z,3336
2018-12-31T12:11:29.284Z,3392
2018-12-31T12:12:39.030Z,3800
2018-12-31T12:13:48.753Z,3580
2018-12-31T12:14:58.371Z,3628
2018-12-31T12:16:08.350Z,3504
2018-12-31T12:17:18.391Z,3268
2018-12-31T12:18:28.127Z,2684
2018-12-31T12:19:37.875Z,2824
2018-12-31T12:20:47.345Z,3228
2018-12-31T12:21:57.305Z,3028
2018-12-31T12:23:06.775Z,2788
2018-12-31T12:24:16.550Z,2644
2018-12-31T12:25:26.152Z,2568
2018-12-31T12:26:35.573Z,2424
2018-12-31T12:27:45.293Z,2356
2018-12-31T12:28:55.257Z,2836
2018-12-31T12:30:04.975Z,2852
2018-12-31T12:31:14.953Z,3132
2018-12-31T12:32:25.740Z,4152
2018-12-31T12:33:36.473Z,4588
2018-12-31T12:34:46.440Z,3468
2018-12-31T12:35:56.534Z,3268
2018-12-31T12:37:06.530Z,3500
2018-12-31T12:38:16.329Z,3424
2018-12-31T12:39:25.539Z,3552
2018-12-31T12:40:35.254Z,4116
2018-12-31T12:41:44.470Z,3784
2018-12-31T12:42:54.180Z,4100
2018-12-31T12:44:03.900Z,4080
2018-12-31T12:45:13.380Z,3844
2018-12-31T12:46:23.344Z,3924
2018-12-31T12:47:33.299Z,4052
2018-12-31T12:48:43.025Z,3424
2018-12-31T12:49:52.758Z,3012
2018-12-31T12:51:02.220Z,2904
2018-12-31T12:52:11.681Z,2964
2018-12-31T12:53:22.135Z,2872
2018-12-31T12:54:32.096Z,2936
2018-12-31T12:55:41.806Z,2616
2018-12-31T12:56:51.806Z,2248
2018-12-31T12:58:01.522Z,2436
2018-12-31T12:59:11.336Z,2816
2018-12-31T13:00:21.106Z,2644
2018-12-31T13:01:30.746Z,2680
2018-12-31T13:02:40.410Z,2216
2018-12-31T13:03:49.587Z,2444
2018-12-31T13:05:05.984Z,2628
2018-12-31T13:06:15.994Z,2744
2018-12-31T13:07:26.900Z,2872
2018-12-31T13:08:37.555Z,3504
2018-12-31T13:09:48.097Z,2804
2018-12-31T13:10:57.710Z,2704
2018-12-31T13:12:07.168Z,3212
2018-12-31T13:13:17.134Z,3260
2018-12-31T13:14:26.347Z,3444
2018-12-31T13:15:35.831Z,3692
2018-12-31T13:16:45.608Z,3396
2018-12-31T13:17:55.329Z,3444
2018-12-31T13:19:05.132Z,4016
2018-12-31T13:20:14.873Z,3780
2018-12-31T13:21:24.349Z,3088
2018-12-31T13:22:33.573Z,2840
2018-12-31T13:23:42.784Z,2788
2018-12-31T13:24:52.291Z,2576
2018-12-31T13:26:02.009Z,2532
2018-12-31T13:27:11.481Z,2472
2018-12-31T13:28:20.962Z,2168
2018-12-31T13:29:30.445Z,2444
2018-12-31T13:30:39.873Z,2196
2018-12-31T13:31:49.840Z,2308
2018-12-31T13:32:59.811Z,2452
2018-12-31T13:34:09.284Z,2088
2018-12-31T13:35:19.020Z,2004
2018-12-31T13:36:30.058Z,2156
2018-12-31T13:37:39.780Z,2308
2018-12-31T13:38:49.555Z,2376
2018-12-31T13:39:59.523Z,2320
2018-12-31T13:41:09.496Z,2264
2018-12-31T13:42:20.370Z,1988
2018-12-31T13:43:31.113Z,1964
2018-12-31T13:44:41.483Z,1772
2018-12-31T13:45:52.162Z,1920
2018-12-31T13:47:02.469Z,2040
2018-12-31T13:48:11.681Z,1772
2018-12-31T13:49:21.476Z,1768
2018-12-31T13:50:31.803Z,1804
2018-12-31T13:51:41.384Z,1808
2018-12-31T13:52:51.103Z,1596
2018-12-31T13:54:00.877Z,1500
2018-12-31T13:55:10.634Z,1384
2018-12-31T13:56:20.446Z,1480
2018-12-31T13:57:30.310Z,1480
2018-12-31T13:58:39.544Z,1728
2018-12-31T13:59:49.273Z,1400
2018-12-31T14:00:58.980Z,1396
2018-12-31T14:02:08.938Z,1328
2018-12-31T14:03:24.509Z,1380
2018-12-31T14:04:34.502Z,1352
2018-12-31T14:05:44.487Z,1232
2018-12-31T14:06:54.206Z,1496
2018-12-31T14:08:03.927Z,1264
2018-12-31T14:09:14.627Z,1192
2018-12-31T14:10:24.102Z,1160
2018-12-31T14:11:34.062Z,1136
2018-12-31T14:12:43.539Z,1256
2018-12-31T14:13:53.336Z,1196
2018-12-31T14:15:03.159Z,1124
2018-12-31T14:16:13.767Z,1184
2018-12-31T14:17:23.672Z,1248
2018-12-31T14:18:34.084Z,1116
2018-12-31T14:19:44.301Z,1032
2018-12-31T14:20:54.265Z,1212
2018-12-31T14:22:03.550Z,1128
2018-12-31T14:23:13.499Z,1032
2018-12-31T14:24:22.969Z,876
2018-12-31T14:25:32.934Z,844
2018-12-31T14:26:42.639Z,912
2018-12-31T14:27:52.357Z,860
2018-12-31T14:29:05.449Z,820
2018-12-31T14:30:19.523Z,876
2018-12-31T14:31:38.521Z,668
2018-12-31T14:32:48.616Z,676
2018-12-31T14:34:01.243Z,752
2018-12-31T14:35:14.349Z,700
2018-12-31T14:36:26.793Z,560
2018-12-31T14:37:39.893Z,516
2018-12-31T14:39:01.949Z,556
2018-12-31T14:40:12.026Z,492
2018-12-31T14:41:21.790Z,508
2018-12-31T14:42:31.500Z,444
2018-12-31T14:43:41.230Z,456
2018-12-31T14:44:50.941Z,432
2018-12-31T14:46:00.408Z,412
2018-12-31T14:47:18.060Z,480
2018-12-31T14:48:27.509Z,384
2018-12-31T14:49:36.963Z,352
2018-12-31T14:50:46.425Z,324
2018-12-31T14:51:55.893Z,360
2018-12-31T14:53:05.615Z,352
2018-12-31T14:54:15.573Z,320
2018-12-31T14:55:25.287Z,264
2018-12-31T14:56:35.002Z,256
2018-12-31T14:57:44.962Z,244
2018-12-31T14:58:54.425Z,212
2018-12-31T15:00:03.875Z,228
2018-12-31T15:01:13.332Z,212
2018-12-31T15:02:22.561Z,200
2018-12-31T15:03:32.677Z,164
2018-12-31T15:04:42.690Z,136
2018-12-31T15:05:52.837Z,164
2018-12-31T15:07:03.460Z,124
2018-12-31T15:08:13.661Z,128
2018-12-31T15:09:23.378Z,140
2018-12-31T15:10:32.845Z,132
2018-12-31T15:11:42.899Z,124
2018-12-31T15:12:52.638Z,96
2018-12-31T15:14:02.112Z,84
2018-12-31T15:15:11.832Z,76
2018-12-31T15:16:21.836Z,64
2018-12-31T15:17:31.546Z,72
2018-12-31T15:18:41.261Z,64
2018-12-31T15:19:50.725Z,72
2018-12-31T15:21:00.443Z,68
2018-12-31T15:22:10.183Z,60
2018-12-31T15:23:19.889Z,64
2018-12-31T15:24:29.594Z,52
2018-12-31T15:25:39.058Z,32
2018-12-31T15:26:48.774Z,32
2018-12-31T15:27:58.726Z,28
2018-12-31T15:29:08.696Z,20
2018-12-31T15:30:18.415Z,20
2018-12-31T15:31:28.449Z,16
2018-12-31T15:32:38.404Z,12
2018-12-31T15:33:48.115Z,16
2018-12-31T15:34:57.578Z,12
2018-12-31T15:36:07.291Z,8
2018-12-31T15:37:16.507Z,8
2018-12-31T15:38:26.214Z,8
2018-12-31T15:39:36.159Z,8
2018-12-31T15:40:46.110Z,8
2018-12-31T15:41:55.327Z,4
2018-12-31T15:43:05.653Z,4
2018-12-31T15:44:16.118Z,4
2018-12-31T15:45:26.187Z,0
2018-12-31T15:46:36.477Z,4
2018-12-31T15:47:48.781Z,0
2018-12-31T15:48:58.499Z,4
2018-12-31T15:50:08.463Z,4
2018-12-31T15:51:18.203Z,4
2018-12-31T15:52:27.729Z,0
2018-12-31T15:53:37.428Z,0
2018-12-31T15:54:47.131Z,0
2018-12-31T15:55:56.607Z,0
2018-12-31T15:57:06.587Z,0
2018-12-31T15:58:15.786Z,0
2018-12-31T15:59:25.526Z,0
2018-12-31T16:00:35.066Z,0
2018-12-31T16:01:45.095Z,0
2018-12-31T16:02:54.551Z,0
2018-12-31T16:04:03.751Z,0
2018-12-31T16:05:13.476Z,0
2018-12-31T16:06:23.183Z,0
2018-12-31T16:07:33.003Z,0
2018-12-31T16:08:42.717Z,0
2018-12-31T16:09:52.434Z,0
2018-12-31T16:11:01.892Z,0
2018-12-31T16:12:11.109Z,0
2018-12-31T16:13:20.819Z,0
2018-12-31T16:14:30.538Z,0
2018-12-31T16:15:40.005Z,0
2018-12-31T16:16:49.976Z,0
2018-12-31T16:17:59.434Z,0
2018-12-31T16:19:08.646Z,0
2018-12-31T16:20:18.354Z,0
2018-12-31T16:21:28.051Z,0
2018-12-31T16:22:37.828Z,0
2018-12-31T16:23:48.649Z,0
2018-12-31T16:24:59.215Z,0
2018-12-31T16:26:10.023Z,0
2018-12-31T16:27:19.957Z,0
2018-12-31T16:28:29.684Z,0
2018-12-31T16:29:39.437Z,0
2018-12-31T16:30:48.892Z,0
2018-12-31T16:31:58.601Z,0
2018-12-31T16:33:08.552Z,0
2018-12-31T16:34:18.517Z,0
2018-12-31T16:35:28.222Z,0
2018-12-31T16:36:37.460Z,0
2018-12-31T16:37:46.680Z,0
2018-12-31T16:38:56.150Z,0
2018-12-31T16:40:05.661Z,0
2018-12-31T16:41:15.379Z,0
2018-12-31T16:42:25.091Z,0
2018-12-31T16:43:34.306Z,0
2018-12-31T16:44:44.655Z,0
2018-12-31T16:45:53.868Z,0
2018-12-31T16:47:03.589Z,0
2018-12-31T16:48:13.301Z,0
2018-12-31T16:49:23.273Z,0
2018-12-31T16:50:33.017Z,0
2018-12-31T16:51:44.473Z,0
2018-12-31T16:52:53.932Z,0
2018-12-31T16:54:03.392Z,0
2018-12-31T16:55:13.408Z,0
2018-12-31T16:56:23.126Z,0
2018-12-31T16:57:33.089Z,0
2018-12-31T16:58:42.806Z,0
2018-12-31T16:59:52.518Z,0
2018-12-31T17:01:02.230Z,0
2018-12-31T17:02:12.759Z,0
2018-12-31T17:03:23.149Z,0
2018-12-31T17:04:33.385Z,0
2018-12-31T17:05:43.546Z,0
2018-12-31T17:06:53.389Z,0
2018-12-31T17:08:03.555Z,0
2018-12-31T17:09:13.207Z,0
2018-12-31T17:10:23.173Z,0
2018-12-31T17:11:32.639Z,0
2018-12-31T17:12:42.600Z,0
2018-12-31T17:13:52.560Z,0
2018-12-31T17:15:02.026Z,0
2018-12-31T17:16:11.490Z,0
2018-12-31T17:17:20.962Z,0
2018-12-31T17:18:30.667Z,0
2018-12-31T17:19:40.495Z,0
2018-12-31T17:20:49.958Z,0
2018-12-31T17:21:59.422Z,0
2018-12-31T17:23:09.181Z,0
2018-12-31T17:24:18.897Z,0
2018-12-31T17:25:28.614Z,0
2018-12-31T17:26:37.826Z,0
2018-12-31T17:27:47.295Z,0
2018-12-31T17:28:56.769Z,0
2018-12-31T17:30:06.249Z,0
2018-12-31T17:31:16.212Z,0
2018-12-31T17:32:25.777Z,0
2018-12-31T17:33:36.419Z,0
2018-12-31T17:34:45.878Z,0
2018-12-31T17:35:55.389Z,0
2018-12-31T17:37:04.604Z,0
2018-12-31T17:38:14.075Z,0
2018-12-31T17:39:23.866Z,0
2018-12-31T17:40:33.585Z,0
2018-12-31T17:41:43.763Z,0
2018-12-31T17:42:53.465Z,0
2018-12-31T17:44:03.111Z,0
2018-12-31T17:45:13.161Z,0
2018-12-31T17:46:30.386Z,0
2018-12-31T17:47:40.268Z,0
2018-12-31T17:48:49.799Z,0
2018-12-31T17:49:59.633Z,0
2018-12-31T17:51:08.856Z,0
2018-12-31T17:52:18.824Z,0
2018-12-31T17:53:28.794Z,0
2018-12-31T17:54:37.769Z,0
2018-12-31T17:55:47.482Z,0
2018-12-31T17:56:56.952Z,0
2018-12-31T17:58:06.671Z,0
2018-12-31T17:59:16.121Z,0
2018-12-31T18:00:25.303Z,0
2018-12-31T18:01:34.790Z,0
2018-12-31T18:02:44.267Z,0
2018-12-31T18:03:53.729Z,0
2018-12-31T18:05:03.245Z,0
2018-12-31T18:06:13.944Z,0
2018-12-31T18:07:23.408Z,0
2018-12-31T18:08:33.473Z,0
2018-12-31T18:09:42.944Z,0
2018-12-31T18:10:52.406Z,0
2018-12-31T18:12:01.624Z,0
2018-12-31T18:13:13.271Z,0
2018-12-31T18:14:23.110Z,0
2018-12-31T18:15:33.096Z,0
2018-12-31T18:16:42.812Z,0
2018-12-31T18:17:52.531Z,0
2018-12-31T18:19:02.490Z,0
2018-12-31T18:20:12.016Z,0
2018-12-31T18:21:22.255Z,0
2018-12-31T18:22:33.105Z,0
2018-12-31T18:23:43.680Z,0
2018-12-31T18:24:53.998Z,0
2018-12-31T18:26:03.831Z,0
2018-12-31T18:27:14.042Z,0
2018-12-31T18:28:23.515Z,0
2018-12-31T18:29:33.383Z,0
2018-12-31T18:30:42.596Z,0
2018-12-31T18:31:52.584Z,0
2018-12-31T18:33:02.331Z,0
2018-12-31T18:34:12.486Z,0
2018-12-31T18:35:21.534Z,0
2018-12-31T18:36:31.502Z,0
2018-12-31T18:37:48.601Z,0
2018-12-31T18:38:58.058Z,0
2018-12-31T18:40:07.270Z,0
2018-12-31T18:41:16.990Z,0
2018-12-31T18:42:26.444Z,0
2018-12-31T18:43:35.900Z,0
2018-12-31T18:44:45.620Z,0
2018-12-31T18:45:55.091Z,0
2018-12-31T18:47:04.799Z,0
2018-12-31T18:48:14.271Z,0
2018-12-31T18:49:24.229Z,0
2018-12-31T18:50:33.444Z,0
2018-12-31T18:51:43.169Z,0
2018-12-31T18:52:52.632Z,0
2018-12-31T18:54:02.144Z,0
2018-12-31T18:55:11.594Z,0
2018-12-31T18:56:21.325Z,0
2018-12-31T18:57:31.041Z,0
2018-12-31T18:58:40.247Z,0
2018-12-31T18:59:50.356Z,0
2018-12-31T19:01:01.147Z,0
2018-12-31T19:02:11.950Z,0
2018-12-31T19:03:22.197Z,0
2018-12-31T19:04:32.185Z,0
2018-12-31T19:05:41.905Z,0
2018-12-31T19:06:51.717Z,0
2018-12-31T19:08:01.434Z,0
2018-12-31T19:09:10.892Z,0
2018-12-31T19:10:20.377Z,0
2018-12-31T19:11:29.847Z,0
2018-12-31T19:12:39.549Z,0
2018-12-31T19:13:49.007Z,0
2018-12-31T19:14:58.715Z,0
2018-12-31T19:16:08.684Z,0
2018-12-31T19:17:18.392Z,0
2018-12-31T19:18:28.166Z,0
2018-12-31T19:19:37.615Z,0
2018-12-31T19:20:47.341Z,0
2018-12-31T19:21:57.065Z,0
2018-12-31T19:23:06.786Z,0
2018-12-31T19:24:16.233Z,0
2018-12-31T19:25:25.700Z,0
2018-12-31T19:26:35.170Z,0
2018-12-31T19:27:44.889Z,0
2018-12-31T19:28:54.350Z,0
2018-12-31T19:30:03.811Z,0
2018-12-31T19:31:13.324Z,0
2018-12-31T19:32:23.052Z,0
2018-12-31T19:33:32.782Z,0
2018-12-31T19:34:42.337Z,0
2018-12-31T19:35:52.285Z,0
2018-12-31T19:37:02.260Z,0
2018-12-31T19:38:11.972Z,0
2018-12-31T19:39:21.729Z,0
2018-12-31T19:40:31.457Z,0
2018-12-31T19:41:41.147Z,0
2018-12-31T19:42:51.137Z,0
2018-12-31T19:44:02.021Z,0
2018-12-31T19:45:12.683Z,0
2018-12-31T19:46:22.486Z,0
2018-12-31T19:47:32.498Z,0
2018-12-31T19:48:42.201Z,0
2018-12-31T19:49:51.917Z,0
2018-12-31T19:51:01.624Z,0
2018-12-31T19:52:11.351Z,0
2018-12-31T19:53:21.116Z,0
2018-12-31T19:54:30.611Z,0
2018-12-31T19:55:40.322Z,0
2018-12-31T19:56:50.038Z,0
2018-12-31T19:57:59.769Z,0
2018-12-31T19:59:09.507Z,0
2018-12-31T20:00:19.233Z,0
2018-12-31T20:01:28.977Z,0
2018-12-31T20:02:38.954Z,0
2018-12-31T20:03:48.707Z,0
2018-12-31T20:04:58.448Z,0
2018-12-31T20:06:08.421Z,0
2018-12-31T20:07:18.384Z,0
2018-12-31T20:08:28.096Z,0
2018-12-31T20:09:37.816Z,0
2018-12-31T20:10:47.287Z,0
2018-12-31T20:11:56.589Z,0
2018-12-31T20:13:05.808Z,0
2018-12-31T20:14:15.539Z,0
2018-12-31T20:15:24.998Z,0
2018-12-31T20:16:34.280Z,0
2018-12-31T20:17:44.005Z,0
2018-12-31T20:18:53.318Z,0
2018-12-31T20:20:03.316Z,0
2018-12-31T20:21:12.549Z,0
2018-12-31T20:22:22.238Z,0
2018-12-31T20:23:32.024Z,0
2018-12-31T20:24:42.177Z,0
2018-12-31T20:25:51.849Z,0
2018-12-31T20:27:01.896Z,0
2018-12-31T20:28:13.726Z,0
2018-12-31T20:29:23.949Z,0
2018-12-31T20:30:33.992Z,0
2018-12-31T20:31:44.342Z,0
2018-12-31T20:32:54.713Z,0
2018-12-31T20:34:04.783Z,0
2018-12-31T20:35:14.052Z,0
2018-12-31T20:36:24.081Z,0
2018-12-31T20:37:34.078Z,0
2018-12-31T20:38:43.330Z,0
2018-12-31T20:39:54.473Z,0
2018-12-31T20:41:04.585Z,0
2018-12-31T20:42:13.846Z,0
2018-12-31T20:43:23.605Z,0
2018-12-31T20:44:33.102Z,0
2018-12-31T20:45:42.859Z,0
2018-12-31T20:46:52.346Z,0
2018-12-31T20:48:08.868Z,0
2018-12-31T20:49:18.610Z,0
2018-12-31T20:50:28.590Z,0
2018-12-31T20:51:38.045Z,0
2018-12-31T20:52:47.751Z,0
2018-12-31T20:53:57.463Z,0
2018-12-31T20:55:07.171Z,0
2018-12-31T20:56:16.883Z,0
2018-12-31T20:57:26.380Z,0
2018-12-31T20:58:35.841Z,0
2018-12-31T20:59:45.804Z,0
2018-12-31T21:00:55.325Z,0
2018-12-31T21:02:05.046Z,0
2018-12-31T21:03:14.767Z,0
2018-12-31T21:04:25.911Z,0
2018-12-31T21:05:35.762Z,0
2018-12-31T21:06:45.471Z,0
2018-12-31T21:07:55.023Z,0
2018-12-31T21:09:04.972Z,0
2018-12-31T21:10:15.315Z,0
2018-12-31T21:11:26.187Z,0
2018-12-31T21:12:36.541Z,0
2018-12-31T21:13:48.380Z,0
2018-12-31T21:14:58.205Z,0
2018-12-31T21:16:08.005Z,0
2018-12-31T21:17:17.226Z,0
2018-12-31T21:18:26.452Z,0
2018-12-31T21:19:36.422Z,0
2018-12-31T21:20:46.141Z,0
2018-12-31T21:21:55.646Z,0
2018-12-31T21:23:04.861Z,0
2018-12-31T21:24:14.381Z,0
2018-12-31T21:25:24.347Z,0
2018-12-31T21:26:34.305Z,0
2018-12-31T21:27:44.032Z,0
2018-12-31T21:28:53.497Z,0
2018-12-31T21:30:03.225Z,0
2018-12-31T21:31:13.073Z,0
2018-12-31T21:32:22.535Z,0
2018-12-31T21:33:32.243Z,0
2018-12-31T21:34:43.793Z,0
2018-12-31T21:35:53.250Z,0
2018-12-31T21:37:02.973Z,0
2018-12-31T21:38:12.679Z,0
2018-12-31T21:39:22.391Z,0
2018-12-31T21:40:33.106Z,0
2018-12-31T21:41:42.657Z,0
2018-12-31T21:42:52.354Z,0
2018-12-31T21:44:02.389Z,0
2018-12-31T21:45:12.208Z,0
2018-12-31T21:46:21.930Z,0
2018-12-31T21:47:31.899Z,0
2018-12-31T21:48:41.618Z,0
2018-12-31T21:49:50.823Z,0
2018-12-31T21:51:00.279Z,0
2018-12-31T21:52:10.235Z,0
2018-12-31T21:53:20.143Z,0
2018-12-31T21:54:30.821Z,0
2018-12-31T21:55:41.782Z,0
2018-12-31T21:56:52.125Z,0
2018-12-31T21:58:02.045Z,0
2018-12-31T21:59:11.657Z,0
2018-12-31T22:00:21.369Z,0
2018-12-31T22:01:31.140Z,0
2018-12-31T22:02:40.621Z,0
2018-12-31T22:03:50.675Z,0
2018-12-31T22:05:00.157Z,0
2018-12-31T22:06:10.207Z,0
2018-12-31T22:07:20.175Z,0
2018-12-31T22:08:29.639Z,0
2018-12-31T22:09:39.587Z,0
2018-12-31T22:10:49.073Z,0
2018-12-31T22:11:58.619Z,0
2018-12-31T22:13:08.087Z,0
2018-12-31T22:14:18.035Z,0
2018-12-31T22:15:27.759Z,0
2018-12-31T22:16:37.729Z,0
2018-12-31T22:17:47.693Z,0
2018-12-31T22:18:57.398Z,0
2018-12-31T22:20:06.622Z,0
2018-12-31T22:21:16.339Z,0
2018-12-31T22:22:25.304Z,0
2018-12-31T22:23:35.013Z,0
2018-12-31T22:24:44.718Z,0
2018-12-31T22:25:54.424Z,0
2018-12-31T22:27:03.645Z,0
2018-12-31T22:28:13.607Z,0
2018-12-31T22:29:23.580Z,0
2018-12-31T22:30:33.286Z,0
2018-12-31T22:31:42.995Z,0
2018-12-31T22:32:52.955Z,0
2018-12-31T22:34:02.915Z,0
2018-12-31T22:35:12.630Z,0
2018-12-31T22:36:22.482Z,0
2018-12-31T22:37:32.316Z,0
2018-12-31T22:38:42.685Z,0
2018-12-31T22:39:53.414Z,0
2018-12-31T22:41:03.667Z,0
2018-12-31T22:42:13.614Z,0
2018-12-31T22:43:23.322Z,0
2018-12-31T22:44:32.828Z,0
2018-12-31T22:45:42.791Z,0
2018-12-31T22:46:52.015Z,0
2018-12-31T22:48:01.723Z,0
2018-12-31T22:49:11.429Z,0
2018-12-31T22:50:20.631Z,0
2018-12-31T22:51:30.508Z,0
2018-12-31T22:52:39.981Z,0
2018-12-31T22:53:49.177Z,0
2018-12-31T22:54:58.890Z,0
2018-12-31T22:56:08.843Z,0
2018-12-31T22:57:18.803Z,0
2018-12-31T22:58:28.529Z,0
2018-12-31T22:59:37.733Z,0
2018-12-31T23:00:47.180Z,0
2018-12-31T23:01:57.144Z,0
2018-12-31T23:03:06.401Z,0
2018-12-31T23:04:16.169Z,0
2018-12-31T23:05:25.633Z,0
2018-12-31T23:06:35.596Z,0
2018-12-31T23:07:45.555Z,0
2018-12-31T23:08:55.633Z,0
2018-12-31T23:10:05.354Z,0
2018-12-31T23:11:15.319Z,0
2018-12-31T23:12:25.032Z,0
2018-12-31T23:13:35.032Z,0
2018-12-31T23:14:44.734Z,0
2018-12-31T23:15:54.517Z,0
2018-12-31T23:17:04.579Z,0
2018-12-31T23:18:15.234Z,0
2018-12-31T23:19:26.017Z,0
2018-12-31T23:20:36.538Z,0
2018-12-31T23:21:46.072Z,0
2018-12-31T23:22:55.780Z,0
2018-12-31T23:24:05.748Z,0
2018-12-31T23:25:15.217Z,0
2018-12-31T23:26:25.194Z,0
2018-12-31T23:27:34.909Z,0
2018-12-31T23:28:52.277Z,0
2018-12-31T23:30:01.959Z,0
2018-12-31T23:31:11.425Z,0
2018-12-31T23:32:21.492Z,0
2018-12-31T23:33:31.201Z,0
2018-12-31T23:34:41.149Z,0
2018-12-31T23:35:51.125Z,0
2018-12-31T23:37:01.095Z,0
2018-12-31T23:38:11.069Z,0
2018-12-31T23:39:20.291Z,0
2018-12-31T23:40:29.757Z,0
2018-12-31T23:41:39.478Z,0
2018-12-31T23:42:49.437Z,0
2018-12-31T23:43:59.400Z,0
2018-12-31T23:45:09.383Z,0
2018-12-31T23:46:19.089Z,0
2018-12-31T23:47:29.004Z,0
2018-12-31T23:48:39.965Z,0
2018-12-31T23:49:49.665Z,0
2018-12-31T23:50:59.373Z,0
2018-12-31T23:52:09.701Z,0
2018-12-31T23:53:20.300Z,0
2018-12-31T23:54:31.133Z,0
2018-12-31T23:55:41.388Z,0
2018-12-31T23:56:52.826Z,0
2018-12-31T23:58:02.793Z,0
2018-12-31T23:59:12.256Z,0
